sensor_id;sensor_type;location;lat;lon;timestamp;P1;durP1;ratioP1;P2;durP2;ratioP2
10725;SDS011;5414;59.782;16.378;2022-09-02T00:00:56;1.40;;;0.70;;
10725;SDS011;5414;59.782;16.378;2022-09-02T00:03:24;1.07;;;0.90;;
10725;SDS011;5414;59.782;16.378;2022-09-02T00:05:50;0.87;;;0.80;;
10725;SDS011;5414;59.782;16.378;2022-09-02T00:08:16;0.80;;;0.80;;
10725;SDS011;5414;59.782;16.378;2022-09-02T00:10:43;0.60;;;0.60;;
10725;SDS011;5414;59.782;16.378;2022-09-02T00:13:10;1.10;;;0.80;;
10725;SDS011;5414;59.782;16.378;2022-09-02T00:15:37;0.73;;;0.70;;
10725;SDS011;5414;59.782;16.378;2022-09-02T00:18:04;0.70;;;0.70;;
10725;SDS011;5414;59.782;16.378;2022-09-02T00:20:31;0.97;;;0.80;;
10725;SDS011;5414;59.782;16.378;2022-09-02T00:22:57;1.03;;;0.90;;
10725;SDS011;5414;59.782;16.378;2022-09-02T00:25:24;0.80;;;0.70;;
10725;SDS011;5414;59.782;16.378;2022-09-02T00:27:50;1.20;;;1.00;;
10725;SDS011;5414;59.782;16.378;2022-09-02T00:30:16;0.90;;;0.80;;
10725;SDS011;5414;59.782;16.378;2022-09-02T00:32:42;1.77;;;0.80;;
10725;SDS011;5414;59.782;16.378;2022-09-02T00:35:08;1.00;;;0.90;;
10725;SDS011;5414;59.782;16.378;2022-09-02T00:37:35;1.27;;;0.77;;
10725;SDS011;5414;59.782;16.378;2022-09-02T00:40:01;1.07;;;0.80;;
10725;SDS011;5414;59.782;16.378;2022-09-02T00:42:27;0.70;;;0.70;;
10725;SDS011;5414;59.782;16.378;2022-09-02T00:44:53;1.67;;;0.87;;
10725;SDS011;5414;59.782;16.378;2022-09-02T00:47:21;1.40;;;0.93;;
10725;SDS011;5414;59.782;16.378;2022-09-02T00:49:49;0.70;;;0.70;;
10725;SDS011;5414;59.782;16.378;2022-09-02T00:52:17;0.80;;;0.80;;
10725;SDS011;5414;59.782;16.378;2022-09-02T00:54:46;1.77;;;0.80;;
10725;SDS011;5414;59.782;16.378;2022-09-02T00:57:14;0.93;;;0.83;;
10725;SDS011;5414;59.782;16.378;2022-09-02T01:02:18;1.20;;;0.90;;
10725;SDS011;5414;59.782;16.378;2022-09-02T01:04:48;0.77;;;0.63;;
10725;SDS011;5414;59.782;16.378;2022-09-02T01:07:14;0.60;;;0.60;;
10725;SDS011;5414;59.782;16.378;2022-09-02T01:09:40;0.80;;;0.80;;
10725;SDS011;5414;59.782;16.378;2022-09-02T01:12:06;0.70;;;0.70;;
10725;SDS011;5414;59.782;16.378;2022-09-02T01:14:32;0.63;;;0.63;;
10725;SDS011;5414;59.782;16.378;2022-09-02T01:16:59;0.70;;;0.70;;
10725;SDS011;5414;59.782;16.378;2022-09-02T01:19:33;1.30;;;0.70;;
10725;SDS011;5414;59.782;16.378;2022-09-02T01:22:00;0.83;;;0.83;;
10725;SDS011;5414;59.782;16.378;2022-09-02T01:24:27;2.87;;;1.00;;
10725;SDS011;5414;59.782;16.378;2022-09-02T01:26:55;1.70;;;0.77;;
10725;SDS011;5414;59.782;16.378;2022-09-02T01:29:22;1.00;;;0.80;;
10725;SDS011;5414;59.782;16.378;2022-09-02T01:31:48;0.70;;;0.70;;
10725;SDS011;5414;59.782;16.378;2022-09-02T01:34:15;0.60;;;0.60;;
10725;SDS011;5414;59.782;16.378;2022-09-02T01:36:41;1.03;;;0.80;;
10725;SDS011;5414;59.782;16.378;2022-09-02T01:39:10;1.27;;;0.60;;
10725;SDS011;5414;59.782;16.378;2022-09-02T01:41:36;1.73;;;0.80;;
10725;SDS011;5414;59.782;16.378;2022-09-02T01:44:03;0.60;;;0.60;;
10725;SDS011;5414;59.782;16.378;2022-09-02T01:46:29;1.00;;;0.80;;
10725;SDS011;5414;59.782;16.378;2022-09-02T01:48:55;0.90;;;0.90;;
10725;SDS011;5414;59.782;16.378;2022-09-02T01:51:21;0.60;;;0.60;;
10725;SDS011;5414;59.782;16.378;2022-09-02T01:53:47;0.93;;;0.83;;
10725;SDS011;5414;59.782;16.378;2022-09-02T01:56:14;1.00;;;0.87;;
10725;SDS011;5414;59.782;16.378;2022-09-02T01:58:40;0.80;;;0.63;;
10725;SDS011;5414;59.782;16.378;2022-09-02T02:01:07;1.53;;;0.80;;
10725;SDS011;5414;59.782;16.378;2022-09-02T02:03:34;0.60;;;0.60;;
10725;SDS011;5414;59.782;16.378;2022-09-02T02:06:01;0.90;;;0.70;;
10725;SDS011;5414;59.782;16.378;2022-09-02T02:08:27;3.50;;;0.90;;
10725;SDS011;5414;59.782;16.378;2022-09-02T02:10:53;1.33;;;0.77;;
10725;SDS011;5414;59.782;16.378;2022-09-02T02:13:21;1.03;;;0.70;;
10725;SDS011;5414;59.782;16.378;2022-09-02T02:15:47;0.87;;;0.70;;
10725;SDS011;5414;59.782;16.378;2022-09-02T02:18:13;2.27;;;0.67;;
10725;SDS011;5414;59.782;16.378;2022-09-02T02:20:39;0.83;;;0.70;;
10725;SDS011;5414;59.782;16.378;2022-09-02T02:23:05;0.50;;;0.50;;
10725;SDS011;5414;59.782;16.378;2022-09-02T02:25:32;0.80;;;0.80;;
10725;SDS011;5414;59.782;16.378;2022-09-02T02:27:59;0.93;;;0.70;;
10725;SDS011;5414;59.782;16.378;2022-09-02T02:30:25;0.60;;;0.60;;
10725;SDS011;5414;59.782;16.378;2022-09-02T02:32:51;1.53;;;0.60;;
10725;SDS011;5414;59.782;16.378;2022-09-02T02:35:17;0.67;;;0.67;;
10725;SDS011;5414;59.782;16.378;2022-09-02T02:37:44;0.53;;;0.53;;
10725;SDS011;5414;59.782;16.378;2022-09-02T02:40:13;0.60;;;0.60;;
10725;SDS011;5414;59.782;16.378;2022-09-02T02:42:39;1.70;;;0.70;;
10725;SDS011;5414;59.782;16.378;2022-09-02T02:45:05;0.83;;;0.70;;
10725;SDS011;5414;59.782;16.378;2022-09-02T02:47:36;1.30;;;0.80;;
10725;SDS011;5414;59.782;16.378;2022-09-02T02:50:05;0.60;;;0.60;;
10725;SDS011;5414;59.782;16.378;2022-09-02T02:52:31;0.90;;;0.90;;
10725;SDS011;5414;59.782;16.378;2022-09-02T02:54:57;1.40;;;0.70;;
10725;SDS011;5414;59.782;16.378;2022-09-02T02:57:23;2.77;;;0.70;;
10725;SDS011;5414;59.782;16.378;2022-09-02T02:59:49;0.60;;;0.60;;
10725;SDS011;5414;59.782;16.378;2022-09-02T03:02:15;1.30;;;0.73;;
10725;SDS011;5414;59.782;16.378;2022-09-02T03:04:41;0.70;;;0.63;;
10725;SDS011;5414;59.782;16.378;2022-09-02T03:07:07;0.77;;;0.77;;
10725;SDS011;5414;59.782;16.378;2022-09-02T03:09:34;0.80;;;0.80;;
10725;SDS011;5414;59.782;16.378;2022-09-02T03:12:00;0.70;;;0.57;;
10725;SDS011;5414;59.782;16.378;2022-09-02T03:14:26;3.23;;;0.80;;
10725;SDS011;5414;59.782;16.378;2022-09-02T03:16:52;0.60;;;0.60;;
10725;SDS011;5414;59.782;16.378;2022-09-02T03:19:18;2.47;;;0.80;;
10725;SDS011;5414;59.782;16.378;2022-09-02T03:21:44;0.63;;;0.50;;
10725;SDS011;5414;59.782;16.378;2022-09-02T03:24:10;0.53;;;0.53;;
10725;SDS011;5414;59.782;16.378;2022-09-02T03:26:37;2.30;;;0.70;;
10725;SDS011;5414;59.782;16.378;2022-09-02T03:29:03;1.80;;;0.90;;
10725;SDS011;5414;59.782;16.378;2022-09-02T03:31:29;1.77;;;0.80;;
10725;SDS011;5414;59.782;16.378;2022-09-02T03:33:55;0.80;;;0.70;;
10725;SDS011;5414;59.782;16.378;2022-09-02T03:36:23;0.63;;;0.60;;
10725;SDS011;5414;59.782;16.378;2022-09-02T03:38:49;0.80;;;0.80;;
10725;SDS011;5414;59.782;16.378;2022-09-02T03:41:16;0.70;;;0.70;;
10725;SDS011;5414;59.782;16.378;2022-09-02T03:43:42;2.57;;;0.70;;
10725;SDS011;5414;59.782;16.378;2022-09-02T03:46:08;0.97;;;0.73;;
10725;SDS011;5414;59.782;16.378;2022-09-02T03:48:34;1.33;;;0.57;;
10725;SDS011;5414;59.782;16.378;2022-09-02T03:51:00;0.70;;;0.70;;
10725;SDS011;5414;59.782;16.378;2022-09-02T03:53:27;0.60;;;0.60;;
10725;SDS011;5414;59.782;16.378;2022-09-02T03:55:53;1.93;;;0.70;;
10725;SDS011;5414;59.782;16.378;2022-09-02T03:58:19;1.60;;;0.70;;
10725;SDS011;5414;59.782;16.378;2022-09-02T04:00:51;0.67;;;0.67;;
10725;SDS011;5414;59.782;16.378;2022-09-02T04:03:17;3.13;;;0.60;;
10725;SDS011;5414;59.782;16.378;2022-09-02T04:05:47;1.67;;;0.80;;
10725;SDS011;5414;59.782;16.378;2022-09-02T04:08:14;1.23;;;0.70;;
10725;SDS011;5414;59.782;16.378;2022-09-02T04:10:40;0.90;;;0.70;;
10725;SDS011;5414;59.782;16.378;2022-09-02T04:13:07;0.80;;;0.70;;
10725;SDS011;5414;59.782;16.378;2022-09-02T04:15:33;0.70;;;0.70;;
10725;SDS011;5414;59.782;16.378;2022-09-02T04:17:59;3.20;;;0.83;;
10725;SDS011;5414;59.782;16.378;2022-09-02T04:20:25;0.70;;;0.70;;
10725;SDS011;5414;59.782;16.378;2022-09-02T04:22:51;1.97;;;0.70;;
10725;SDS011;5414;59.782;16.378;2022-09-02T04:25:17;1.77;;;0.60;;
10725;SDS011;5414;59.782;16.378;2022-09-02T04:27:43;0.77;;;0.73;;
10725;SDS011;5414;59.782;16.378;2022-09-02T04:30:09;1.83;;;0.90;;
10725;SDS011;5414;59.782;16.378;2022-09-02T04:32:37;0.97;;;0.70;;
10725;SDS011;5414;59.782;16.378;2022-09-02T04:35:03;1.03;;;0.70;;
10725;SDS011;5414;59.782;16.378;2022-09-02T04:37:29;2.47;;;0.77;;
10725;SDS011;5414;59.782;16.378;2022-09-02T04:39:57;1.53;;;0.70;;
10725;SDS011;5414;59.782;16.378;2022-09-02T04:42:23;0.77;;;0.60;;
10725;SDS011;5414;59.782;16.378;2022-09-02T04:44:50;0.90;;;0.70;;
10725;SDS011;5414;59.782;16.378;2022-09-02T04:47:17;0.80;;;0.80;;
10725;SDS011;5414;59.782;16.378;2022-09-02T04:49:43;1.90;;;0.87;;
10725;SDS011;5414;59.782;16.378;2022-09-02T04:52:09;1.40;;;0.70;;
10725;SDS011;5414;59.782;16.378;2022-09-02T04:54:35;1.17;;;0.90;;
10725;SDS011;5414;59.782;16.378;2022-09-02T04:57:02;0.50;;;0.50;;
10725;SDS011;5414;59.782;16.378;2022-09-02T04:59:28;1.47;;;0.80;;
10725;SDS011;5414;59.782;16.378;2022-09-02T05:01:54;2.20;;;0.87;;
10725;SDS011;5414;59.782;16.378;2022-09-02T05:04:20;3.70;;;0.80;;
10725;SDS011;5414;59.782;16.378;2022-09-02T05:06:46;0.70;;;0.70;;
10725;SDS011;5414;59.782;16.378;2022-09-02T05:09:12;3.23;;;0.70;;
10725;SDS011;5414;59.782;16.378;2022-09-02T05:11:39;2.93;;;0.70;;
10725;SDS011;5414;59.782;16.378;2022-09-02T05:14:06;2.30;;;0.70;;
10725;SDS011;5414;59.782;16.378;2022-09-02T05:16:34;0.90;;;0.60;;
10725;SDS011;5414;59.782;16.378;2022-09-02T05:19:04;2.00;;;0.80;;
10725;SDS011;5414;59.782;16.378;2022-09-02T05:21:31;0.90;;;0.80;;
10725;SDS011;5414;59.782;16.378;2022-09-02T05:23:57;1.87;;;1.00;;
10725;SDS011;5414;59.782;16.378;2022-09-02T05:26:23;0.80;;;0.80;;
10725;SDS011;5414;59.782;16.378;2022-09-02T05:28:50;0.80;;;0.80;;
10725;SDS011;5414;59.782;16.378;2022-09-02T05:31:17;1.00;;;0.90;;
10725;SDS011;5414;59.782;16.378;2022-09-02T05:33:44;0.90;;;0.80;;
10725;SDS011;5414;59.782;16.378;2022-09-02T05:36:13;1.40;;;0.80;;
10725;SDS011;5414;59.782;16.378;2022-09-02T05:38:39;2.03;;;0.70;;
10725;SDS011;5414;59.782;16.378;2022-09-02T05:41:06;0.80;;;0.80;;
10725;SDS011;5414;59.782;16.378;2022-09-02T05:43:34;0.87;;;0.83;;
10725;SDS011;5414;59.782;16.378;2022-09-02T05:46:02;2.20;;;0.90;;
10725;SDS011;5414;59.782;16.378;2022-09-02T05:48:30;1.00;;;0.90;;
10725;SDS011;5414;59.782;16.378;2022-09-02T05:51:15;1.63;;;0.80;;
10725;SDS011;5414;59.782;16.378;2022-09-02T05:53:41;0.70;;;0.70;;
10725;SDS011;5414;59.782;16.378;2022-09-02T05:56:07;0.80;;;0.80;;
10725;SDS011;5414;59.782;16.378;2022-09-02T05:58:33;1.93;;;0.90;;
10725;SDS011;5414;59.782;16.378;2022-09-02T06:00:59;1.07;;;1.00;;
10725;SDS011;5414;59.782;16.378;2022-09-02T06:03:25;1.17;;;1.07;;
10725;SDS011;5414;59.782;16.378;2022-09-02T06:05:57;2.10;;;1.17;;
10725;SDS011;5414;59.782;16.378;2022-09-02T06:08:24;1.10;;;1.00;;
10725;SDS011;5414;59.782;16.378;2022-09-02T06:10:50;1.10;;;1.00;;
10725;SDS011;5414;59.782;16.378;2022-09-02T06:13:16;1.93;;;1.20;;
10725;SDS011;5414;59.782;16.378;2022-09-02T06:15:46;1.37;;;1.07;;
10725;SDS011;5414;59.782;16.378;2022-09-02T06:18:13;1.27;;;1.17;;
10725;SDS011;5414;59.782;16.378;2022-09-02T06:20:43;1.73;;;1.30;;
10725;SDS011;5414;59.782;16.378;2022-09-02T06:23:09;2.00;;;1.70;;
10725;SDS011;5414;59.782;16.378;2022-09-02T06:25:38;1.77;;;1.50;;
10725;SDS011;5414;59.782;16.378;2022-09-02T06:28:04;1.83;;;1.73;;
10725;SDS011;5414;59.782;16.378;2022-09-02T06:30:31;2.07;;;1.70;;
10725;SDS011;5414;59.782;16.378;2022-09-02T06:32:57;1.83;;;1.40;;
10725;SDS011;5414;59.782;16.378;2022-09-02T06:35:23;1.30;;;1.20;;
10725;SDS011;5414;59.782;16.378;2022-09-02T06:37:49;1.67;;;1.10;;
10725;SDS011;5414;59.782;16.378;2022-09-02T06:40:15;1.93;;;1.13;;
10725;SDS011;5414;59.782;16.378;2022-09-02T06:42:44;2.30;;;1.00;;
10725;SDS011;5414;59.782;16.378;2022-09-02T06:45:12;1.13;;;0.90;;
10725;SDS011;5414;59.782;16.378;2022-09-02T06:47:38;0.80;;;0.80;;
10725;SDS011;5414;59.782;16.378;2022-09-02T06:50:04;1.23;;;0.90;;
10725;SDS011;5414;59.782;16.378;2022-09-02T06:52:30;2.00;;;0.90;;
10725;SDS011;5414;59.782;16.378;2022-09-02T06:54:56;1.70;;;1.00;;
10725;SDS011;5414;59.782;16.378;2022-09-02T06:57:23;1.03;;;0.80;;
10725;SDS011;5414;59.782;16.378;2022-09-02T06:59:49;1.17;;;0.90;;
10725;SDS011;5414;59.782;16.378;2022-09-02T07:02:16;0.70;;;0.70;;
10725;SDS011;5414;59.782;16.378;2022-09-02T07:04:42;0.63;;;0.63;;
10725;SDS011;5414;59.782;16.378;2022-09-02T07:07:27;0.90;;;0.63;;
10725;SDS011;5414;59.782;16.378;2022-09-02T07:09:53;0.97;;;0.70;;
10725;SDS011;5414;59.782;16.378;2022-09-02T07:12:19;0.77;;;0.70;;
10725;SDS011;5414;59.782;16.378;2022-09-02T07:14:45;0.60;;;0.60;;
10725;SDS011;5414;59.782;16.378;2022-09-02T07:17:12;2.13;;;0.70;;
10725;SDS011;5414;59.782;16.378;2022-09-02T07:19:45;0.70;;;0.67;;
10725;SDS011;5414;59.782;16.378;2022-09-02T07:22:11;1.00;;;0.60;;
10725;SDS011;5414;59.782;16.378;2022-09-02T07:24:37;0.93;;;0.67;;
10725;SDS011;5414;59.782;16.378;2022-09-02T07:27:04;3.23;;;0.60;;
10725;SDS011;5414;59.782;16.378;2022-09-02T07:29:30;0.77;;;0.50;;
10725;SDS011;5414;59.782;16.378;2022-09-02T07:31:56;0.60;;;0.60;;
10725;SDS011;5414;59.782;16.378;2022-09-02T07:34:23;0.63;;;0.60;;
10725;SDS011;5414;59.782;16.378;2022-09-02T07:36:49;2.13;;;0.60;;
10725;SDS011;5414;59.782;16.378;2022-09-02T07:39:16;1.50;;;0.60;;
10725;SDS011;5414;59.782;16.378;2022-09-02T07:41:43;0.73;;;0.60;;
10725;SDS011;5414;59.782;16.378;2022-09-02T07:44:10;0.90;;;0.60;;
10725;SDS011;5414;59.782;16.378;2022-09-02T07:46:36;1.90;;;0.60;;
10725;SDS011;5414;59.782;16.378;2022-09-02T07:49:04;0.57;;;0.50;;
10725;SDS011;5414;59.782;16.378;2022-09-02T07:51:31;0.47;;;0.47;;
10725;SDS011;5414;59.782;16.378;2022-09-02T07:53:58;0.80;;;0.57;;
10725;SDS011;5414;59.782;16.378;2022-09-02T07:56:24;0.50;;;0.50;;
10725;SDS011;5414;59.782;16.378;2022-09-02T07:58:50;0.70;;;0.60;;
10725;SDS011;5414;59.782;16.378;2022-09-02T08:01:16;0.60;;;0.50;;
10725;SDS011;5414;59.782;16.378;2022-09-02T08:03:44;0.57;;;0.50;;
10725;SDS011;5414;59.782;16.378;2022-09-02T08:06:11;1.40;;;0.50;;
10725;SDS011;5414;59.782;16.378;2022-09-02T08:08:37;0.50;;;0.40;;
10725;SDS011;5414;59.782;16.378;2022-09-02T08:11:04;1.20;;;0.40;;
10725;SDS011;5414;59.782;16.378;2022-09-02T08:13:30;0.70;;;0.50;;
10725;SDS011;5414;59.782;16.378;2022-09-02T08:15:56;0.43;;;0.40;;
10725;SDS011;5414;59.782;16.378;2022-09-02T08:18:22;0.60;;;0.60;;
10725;SDS011;5414;59.782;16.378;2022-09-02T08:20:49;0.50;;;0.50;;
10725;SDS011;5414;59.782;16.378;2022-09-02T08:23:15;0.50;;;0.40;;
10725;SDS011;5414;59.782;16.378;2022-09-02T08:25:41;0.40;;;0.40;;
10725;SDS011;5414;59.782;16.378;2022-09-02T08:28:07;0.40;;;0.40;;
10725;SDS011;5414;59.782;16.378;2022-09-02T08:30:33;0.93;;;0.50;;
10725;SDS011;5414;59.782;16.378;2022-09-02T08:32:59;1.33;;;0.60;;
10725;SDS011;5414;59.782;16.378;2022-09-02T08:35:25;0.70;;;0.50;;
10725;SDS011;5414;59.782;16.378;2022-09-02T08:37:51;0.63;;;0.63;;
10725;SDS011;5414;59.782;16.378;2022-09-02T08:40:22;0.73;;;0.43;;
10725;SDS011;5414;59.782;16.378;2022-09-02T08:42:52;0.50;;;0.50;;
10725;SDS011;5414;59.782;16.378;2022-09-02T08:47:46;0.40;;;0.40;;
10725;SDS011;5414;59.782;16.378;2022-09-02T08:50:15;0.70;;;0.50;;
10725;SDS011;5414;59.782;16.378;2022-09-02T08:52:50;0.40;;;0.37;;
10725;SDS011;5414;59.782;16.378;2022-09-02T08:55:18;0.50;;;0.50;;
10725;SDS011;5414;59.782;16.378;2022-09-02T08:57:45;0.70;;;0.50;;
10725;SDS011;5414;59.782;16.378;2022-09-02T09:00:12;0.57;;;0.50;;
10725;SDS011;5414;59.782;16.378;2022-09-02T09:02:57;0.53;;;0.50;;
10725;SDS011;5414;59.782;16.378;2022-09-02T09:05:29;0.40;;;0.40;;
10725;SDS011;5414;59.782;16.378;2022-09-02T09:08:11;0.43;;;0.43;;
10725;SDS011;5414;59.782;16.378;2022-09-02T09:10:59;0.30;;;0.30;;
10725;SDS011;5414;59.782;16.378;2022-09-02T09:16:07;0.40;;;0.40;;
10725;SDS011;5414;59.782;16.378;2022-09-02T09:18:52;0.43;;;0.43;;
10725;SDS011;5414;59.782;16.378;2022-09-02T09:21:21;0.40;;;0.40;;
10725;SDS011;5414;59.782;16.378;2022-09-02T09:23:48;0.40;;;0.40;;
10725;SDS011;5414;59.782;16.378;2022-09-02T09:26:19;0.40;;;0.40;;
10725;SDS011;5414;59.782;16.378;2022-09-02T09:28:47;0.47;;;0.43;;
10725;SDS011;5414;59.782;16.378;2022-09-02T09:31:18;0.30;;;0.30;;
10725;SDS011;5414;59.782;16.378;2022-09-02T09:41:42;0.40;;;0.40;;
10725;SDS011;5414;59.782;16.378;2022-09-02T09:44:09;0.50;;;0.50;;
10725;SDS011;5414;59.782;16.378;2022-09-02T09:46:35;0.33;;;0.33;;
10725;SDS011;5414;59.782;16.378;2022-09-02T09:49:01;1.03;;;0.30;;
10725;SDS011;5414;59.782;16.378;2022-09-02T09:51:27;0.30;;;0.30;;
10725;SDS011;5414;59.782;16.378;2022-09-02T09:54:12;0.50;;;0.50;;
10725;SDS011;5414;59.782;16.378;2022-09-02T09:56:39;0.40;;;0.30;;
10725;SDS011;5414;59.782;16.378;2022-09-02T09:59:06;0.57;;;0.40;;
10725;SDS011;5414;59.782;16.378;2022-09-02T10:01:32;0.50;;;0.40;;
10725;SDS011;5414;59.782;16.378;2022-09-02T10:04:09;0.63;;;0.40;;
10725;SDS011;5414;59.782;16.378;2022-09-02T10:11:28;0.90;;;0.40;;
10725;SDS011;5414;59.782;16.378;2022-09-02T10:13:59;0.33;;;0.33;;
10725;SDS011;5414;59.782;16.378;2022-09-02T10:16:59;1.13;;;0.30;;
10725;SDS011;5414;59.782;16.378;2022-09-02T10:19:23;0.27;;;0.27;;
10725;SDS011;5414;59.782;16.378;2022-09-02T10:27:01;0.47;;;0.37;;
10725;SDS011;5414;59.782;16.378;2022-09-02T10:29:34;0.40;;;0.40;;
10725;SDS011;5414;59.782;16.378;2022-09-02T10:32:23;0.30;;;0.30;;
10725;SDS011;5414;59.782;16.378;2022-09-02T10:35:03;0.50;;;0.40;;
10725;SDS011;5414;59.782;16.378;2022-09-02T10:37:58;0.40;;;0.40;;
10725;SDS011;5414;59.782;16.378;2022-09-02T10:40:22;0.30;;;0.30;;
10725;SDS011;5414;59.782;16.378;2022-09-02T10:43:05;0.63;;;0.50;;
10725;SDS011;5414;59.782;16.378;2022-09-02T10:45:45;1.10;;;0.53;;
10725;SDS011;5414;59.782;16.378;2022-09-02T10:51:09;0.50;;;0.40;;
10725;SDS011;5414;59.782;16.378;2022-09-02T10:53:56;0.30;;;0.30;;
10725;SDS011;5414;59.782;16.378;2022-09-02T10:56:25;0.40;;;0.40;;
10725;SDS011;5414;59.782;16.378;2022-09-02T11:04:07;0.30;;;0.30;;
10725;SDS011;5414;59.782;16.378;2022-09-02T11:06:36;0.40;;;0.40;;
10725;SDS011;5414;59.782;16.378;2022-09-02T11:11:48;0.40;;;0.40;;
10725;SDS011;5414;59.782;16.378;2022-09-02T11:14:25;0.50;;;0.40;;
10725;SDS011;5414;59.782;16.378;2022-09-02T11:16:59;0.60;;;0.30;;
10725;SDS011;5414;59.782;16.378;2022-09-02T11:19:32;0.40;;;0.40;;
10725;SDS011;5414;59.782;16.378;2022-09-02T11:24:33;0.40;;;0.40;;
10725;SDS011;5414;59.782;16.378;2022-09-02T11:29:51;0.40;;;0.40;;
10725;SDS011;5414;59.782;16.378;2022-09-02T11:32:25;0.40;;;0.40;;
10725;SDS011;5414;59.782;16.378;2022-09-02T11:34:54;0.33;;;0.33;;
10725;SDS011;5414;59.782;16.378;2022-09-02T11:43:02;0.50;;;0.50;;
10725;SDS011;5414;59.782;16.378;2022-09-02T11:50:30;0.50;;;0.40;;
10725;SDS011;5414;59.782;16.378;2022-09-02T11:55:40;0.50;;;0.50;;
10725;SDS011;5414;59.782;16.378;2022-09-02T11:58:08;0.40;;;0.40;;
10725;SDS011;5414;59.782;16.378;2022-09-02T12:00:55;0.40;;;0.40;;
10725;SDS011;5414;59.782;16.378;2022-09-02T12:03:28;0.40;;;0.40;;
10725;SDS011;5414;59.782;16.378;2022-09-02T12:06:14;0.63;;;0.40;;
10725;SDS011;5414;59.782;16.378;2022-09-02T12:14:11;0.47;;;0.40;;
10725;SDS011;5414;59.782;16.378;2022-09-02T12:17:06;0.40;;;0.40;;
10725;SDS011;5414;59.782;16.378;2022-09-02T12:24:49;0.40;;;0.40;;
10725;SDS011;5414;59.782;16.378;2022-09-02T12:27:26;0.43;;;0.43;;
10725;SDS011;5414;59.782;16.378;2022-09-02T12:29:53;0.40;;;0.40;;
10725;SDS011;5414;59.782;16.378;2022-09-02T12:35:09;0.83;;;0.40;;
10725;SDS011;5414;59.782;16.378;2022-09-02T12:37:54;0.60;;;0.40;;
10725;SDS011;5414;59.782;16.378;2022-09-02T12:40:29;0.40;;;0.40;;
10725;SDS011;5414;59.782;16.378;2022-09-02T12:42:58;0.40;;;0.40;;
10725;SDS011;5414;59.782;16.378;2022-09-02T12:45:27;0.30;;;0.30;;
10725;SDS011;5414;59.782;16.378;2022-09-02T12:50:31;0.40;;;0.40;;
10725;SDS011;5414;59.782;16.378;2022-09-02T12:55:50;0.50;;;0.50;;
10725;SDS011;5414;59.782;16.378;2022-09-02T12:58:19;0.40;;;0.40;;
10725;SDS011;5414;59.782;16.378;2022-09-02T13:06:00;0.57;;;0.50;;
10725;SDS011;5414;59.782;16.378;2022-09-02T13:08:31;0.47;;;0.47;;
10725;SDS011;5414;59.782;16.378;2022-09-02T13:32:13;0.57;;;0.50;;
10725;SDS011;5414;59.782;16.378;2022-09-02T13:34:41;0.40;;;0.40;;
10725;SDS011;5414;59.782;16.378;2022-09-02T13:39:52;0.57;;;0.40;;
10725;SDS011;5414;59.782;16.378;2022-09-02T13:42:21;1.20;;;0.40;;
10725;SDS011;5414;59.782;16.378;2022-09-02T13:44:47;0.40;;;0.40;;
10725;SDS011;5414;59.782;16.378;2022-09-02T13:47:17;0.60;;;0.40;;
10725;SDS011;5414;59.782;16.378;2022-09-02T13:49:46;0.67;;;0.50;;
10725;SDS011;5414;59.782;16.378;2022-09-02T13:52:16;0.80;;;0.50;;
10725;SDS011;5414;59.782;16.378;2022-09-02T13:54:53;0.40;;;0.40;;
10725;SDS011;5414;59.782;16.378;2022-09-02T13:57:23;0.40;;;0.40;;
10725;SDS011;5414;59.782;16.378;2022-09-02T13:59:50;0.53;;;0.50;;
10725;SDS011;5414;59.782;16.378;2022-09-02T14:02:27;0.87;;;0.50;;
10725;SDS011;5414;59.782;16.378;2022-09-02T14:05:01;0.60;;;0.50;;
10725;SDS011;5414;59.782;16.378;2022-09-02T14:07:32;0.50;;;0.50;;
10725;SDS011;5414;59.782;16.378;2022-09-02T14:10:02;0.63;;;0.50;;
10725;SDS011;5414;59.782;16.378;2022-09-02T14:12:30;0.43;;;0.43;;
10725;SDS011;5414;59.782;16.378;2022-09-02T14:14:57;0.40;;;0.40;;
10725;SDS011;5414;59.782;16.378;2022-09-02T14:17:24;0.40;;;0.40;;
10725;SDS011;5414;59.782;16.378;2022-09-02T14:19:51;0.87;;;0.40;;
10725;SDS011;5414;59.782;16.378;2022-09-02T14:22:32;0.97;;;0.50;;
10725;SDS011;5414;59.782;16.378;2022-09-02T14:24:59;0.50;;;0.50;;
10725;SDS011;5414;59.782;16.378;2022-09-02T14:27:32;0.40;;;0.40;;
10725;SDS011;5414;59.782;16.378;2022-09-02T14:29:58;0.40;;;0.40;;
10725;SDS011;5414;59.782;16.378;2022-09-02T14:32:27;0.50;;;0.50;;
10725;SDS011;5414;59.782;16.378;2022-09-02T14:37:53;0.40;;;0.40;;
10725;SDS011;5414;59.782;16.378;2022-09-02T14:40:39;0.50;;;0.50;;
10725;SDS011;5414;59.782;16.378;2022-09-02T14:43:11;0.60;;;0.40;;
10725;SDS011;5414;59.782;16.378;2022-09-02T14:45:37;1.57;;;0.50;;
10725;SDS011;5414;59.782;16.378;2022-09-02T14:48:14;0.50;;;0.43;;
10725;SDS011;5414;59.782;16.378;2022-09-02T14:50:43;0.53;;;0.40;;
10725;SDS011;5414;59.782;16.378;2022-09-02T14:53:09;0.40;;;0.40;;
10725;SDS011;5414;59.782;16.378;2022-09-02T14:55:57;1.13;;;0.57;;
10725;SDS011;5414;59.782;16.378;2022-09-02T14:58:23;0.40;;;0.40;;
10725;SDS011;5414;59.782;16.378;2022-09-02T15:00:50;0.50;;;0.50;;
10725;SDS011;5414;59.782;16.378;2022-09-02T15:03:18;0.40;;;0.40;;
10725;SDS011;5414;59.782;16.378;2022-09-02T15:05:44;0.73;;;0.50;;
10725;SDS011;5414;59.782;16.378;2022-09-02T15:08:10;0.40;;;0.40;;
10725;SDS011;5414;59.782;16.378;2022-09-02T15:10:37;0.50;;;0.50;;
10725;SDS011;5414;59.782;16.378;2022-09-02T15:13:05;1.23;;;0.50;;
10725;SDS011;5414;59.782;16.378;2022-09-02T15:15:31;0.60;;;0.50;;
10725;SDS011;5414;59.782;16.378;2022-09-02T15:17:57;0.87;;;0.50;;
10725;SDS011;5414;59.782;16.378;2022-09-02T15:20:24;0.47;;;0.40;;
10725;SDS011;5414;59.782;16.378;2022-09-02T15:22:52;0.50;;;0.50;;
10725;SDS011;5414;59.782;16.378;2022-09-02T15:25:18;0.57;;;0.50;;
10725;SDS011;5414;59.782;16.378;2022-09-02T15:27:44;1.57;;;0.50;;
10725;SDS011;5414;59.782;16.378;2022-09-02T15:30:10;3.03;;;0.70;;
10725;SDS011;5414;59.782;16.378;2022-09-02T15:32:38;0.50;;;0.50;;
10725;SDS011;5414;59.782;16.378;2022-09-02T15:35:05;0.70;;;0.50;;
10725;SDS011;5414;59.782;16.378;2022-09-02T15:37:31;1.13;;;0.50;;
10725;SDS011;5414;59.782;16.378;2022-09-02T15:40:01;0.47;;;0.47;;
10725;SDS011;5414;59.782;16.378;2022-09-02T15:42:27;1.07;;;0.60;;
10725;SDS011;5414;59.782;16.378;2022-09-02T15:44:53;0.70;;;0.50;;
10725;SDS011;5414;59.782;16.378;2022-09-02T15:47:19;0.53;;;0.40;;
10725;SDS011;5414;59.782;16.378;2022-09-02T15:49:45;0.40;;;0.40;;
10725;SDS011;5414;59.782;16.378;2022-09-02T15:52:11;0.57;;;0.47;;
10725;SDS011;5414;59.782;16.378;2022-09-02T15:54:37;0.40;;;0.40;;
10725;SDS011;5414;59.782;16.378;2022-09-02T15:57:03;0.53;;;0.50;;
10725;SDS011;5414;59.782;16.378;2022-09-02T15:59:29;0.53;;;0.53;;
10725;SDS011;5414;59.782;16.378;2022-09-02T16:01:55;0.60;;;0.60;;
10725;SDS011;5414;59.782;16.378;2022-09-02T16:04:24;1.23;;;0.50;;
10725;SDS011;5414;59.782;16.378;2022-09-02T16:06:54;1.13;;;0.60;;
10725;SDS011;5414;59.782;16.378;2022-09-02T16:09:20;0.70;;;0.60;;
10725;SDS011;5414;59.782;16.378;2022-09-02T16:11:50;0.53;;;0.43;;
10725;SDS011;5414;59.782;16.378;2022-09-02T16:14:17;0.53;;;0.43;;
10725;SDS011;5414;59.782;16.378;2022-09-02T16:16:43;0.50;;;0.50;;
10725;SDS011;5414;59.782;16.378;2022-09-02T16:19:10;0.40;;;0.40;;
10725;SDS011;5414;59.782;16.378;2022-09-02T16:21:38;1.43;;;0.70;;
10725;SDS011;5414;59.782;16.378;2022-09-02T16:24:05;1.80;;;0.60;;
10725;SDS011;5414;59.782;16.378;2022-09-02T16:26:38;0.60;;;0.60;;
10725;SDS011;5414;59.782;16.378;2022-09-02T16:29:06;0.80;;;0.50;;
10725;SDS011;5414;59.782;16.378;2022-09-02T16:31:34;1.20;;;0.90;;
10725;SDS011;5414;59.782;16.378;2022-09-02T16:36:29;2.60;;;1.53;;
10725;SDS011;5414;59.782;16.378;2022-09-02T16:38:55;0.93;;;0.80;;
10725;SDS011;5414;59.782;16.378;2022-09-02T16:41:26;1.03;;;0.60;;
10725;SDS011;5414;59.782;16.378;2022-09-02T16:43:52;0.63;;;0.50;;